Time;durP1;ratioP1;P1;durP2;ratioP2;P2;SDS_P1;SDS_P2;PMS_P1;PMS_P2;Temp;Humidity;BMP_temperature;BMP_pressure;BME280_temperature;BME280_humidity;BME280_pressure;Samples;Min_cycle;Max_cycle;Signal;HPM_P1;HPM_P2
2021/05/03 00:00:17;;;;;;;5.68;3.40;;;;;;;3.40;70.10;102081.66;5307786;28;20516;-67
2021/05/03 00:02:48;;;;;;;5.80;3.00;;;;;;;3.32;70.64;102074.16;5306766;28;20114;-67
2021/05/03 00:05:25;;;;;;;7.00;3.30;;;;;;;3.36;70.66;102069.69;5309142;28;20019;-67
2021/05/03 00:07:57;;;;;;;8.02;4.00;;;;;;;3.27;71.20;102057.94;5306435;28;20035;-67
2021/05/03 00:10:28;;;;;;;8.63;4.00;;;;;;;3.27;71.29;102057.94;5307902;28;20211;-66
2021/05/03 00:12:59;;;;;;;5.53;3.72;;;;;;;3.21;71.74;102059.88;5308515;28;20047;-67
2021/05/03 00:15:31;;;;;;;5.40;3.80;;;;;;;3.09;71.82;102049.03;5308467;28;20539;-67
2021/05/03 00:18:02;;;;;;;7.43;4.03;;;;;;;3.19;72.15;102061.69;5306655;28;20031;-67
2021/05/03 00:20:34;;;;;;;8.15;4.55;;;;;;;3.17;71.85;102057.38;5305836;28;20393;-67
2021/05/03 00:23:05;;;;;;;8.05;4.40;;;;;;;3.16;72.47;102060.03;5308335;28;20024;-67
2021/05/03 00:25:36;;;;;;;6.22;4.55;;;;;;;3.17;72.28;102062.56;5307884;28;20187;-67
2021/05/03 00:28:08;;;;;;;7.57;4.68;;;;;;;3.18;72.58;102073.75;5306670;28;20043;-66
2021/05/03 00:30:39;;;;;;;7.95;4.55;;;;;;;3.12;72.67;102067.06;5308674;28;20428;-67
2021/05/03 00:33:11;;;;;;;5.18;4.20;;;;;;;3.11;72.87;102059.38;5305769;28;20668;-67
2021/05/03 00:35:42;;;;;;;9.85;4.47;;;;;;;3.11;72.64;102065.38;5307011;28;20393;-67
2021/05/03 00:38:13;;;;;;;7.47;4.40;;;;;;;3.09;73.25;102066.31;5307089;28;20672;-67
2021/05/03 00:40:45;;;;;;;6.72;4.15;;;;;;;3.09;73.04;102080.09;5306914;28;20050;-67
2021/05/03 00:43:20;;;;;;;6.82;4.65;;;;;;;3.07;73.21;102066.38;5308977;28;20024;-67
2021/05/03 00:45:52;;;;;;;8.10;4.30;;;;;;;3.02;73.33;102076.03;5306856;28;20031;-67
2021/05/03 00:48:24;;;;;;;7.30;4.43;;;;;;;2.99;73.46;102070.94;5306801;28;20067;-66
2021/05/03 00:50:55;;;;;;;5.00;4.05;;;;;;;2.96;73.02;102070.25;5308574;28;20036;-67
2021/05/03 00:53:27;;;;;;;7.72;4.40;;;;;;;2.93;73.30;102068.59;5308344;28;20708;-67
2021/05/03 00:55:58;;;;;;;5.93;4.70;;;;;;;2.92;74.03;102064.31;5306867;28;20031;-67
2021/05/03 00:58:29;;;;;;;6.72;4.43;;;;;;;2.95;72.97;102064.19;5307703;28;20032;-67
2021/05/03 01:01:02;;;;;;;6.28;4.25;;;;;;;2.87;73.61;102067.03;5308081;28;20034;-67
2021/05/03 01:03:33;;;;;;;5.68;4.40;;;;;;;2.86;73.35;102064.50;5305519;28;20035;-67
2021/05/03 01:06:05;;;;;;;9.07;5.13;;;;;;;2.81;73.95;102056.91;5307067;28;20024;-67
2021/05/03 01:08:36;;;;;;;7.00;4.63;;;;;;;2.86;74.08;102069.69;5306095;28;20027;-67
2021/05/03 01:11:07;;;;;;;5.32;4.53;;;;;;;2.84;73.77;102059.41;5303927;28;20030;-67
2021/05/03 01:13:39;;;;;;;7.40;4.93;;;;;;;2.80;74.45;102060.34;5305741;28;20107;-68
2021/05/03 01:16:11;;;;;;;7.20;4.70;;;;;;;2.76;74.56;102056.19;5306580;28;20079;-67
2021/05/03 01:18:42;;;;;;;5.82;4.57;;;;;;;2.78;74.39;102054.41;5305640;28;20106;-67
2021/05/03 01:21:25;;;;;;;8.20;5.10;;;;;;;2.76;74.50;102050.16;5306277;28;20114;-67
2021/05/03 01:23:56;;;;;;;7.10;5.67;;;;;;;2.73;74.55;102050.25;5308142;28;20027;-66
2021/05/03 01:26:27;;;;;;;8.55;5.80;;;;;;;2.70;74.79;102048.63;5305380;28;20054;-67
2021/05/03 01:28:59;;;;;;;9.07;6.25;;;;;;;2.64;74.65;102052.25;5288277;28;20370;-67
2021/05/03 01:31:30;;;;;;;8.07;6.40;;;;;;;2.63;75.07;102055.75;5307944;28;20672;-67
2021/05/03 01:34:06;;;;;;;9.10;6.70;;;;;;;2.71;74.90;102057.25;5305521;28;20477;-66
2021/05/03 01:36:38;;;;;;;12.70;7.47;;;;;;;2.62;75.41;102056.66;5306040;28;20055;-67
2021/05/03 01:39:14;;;;;;;9.43;7.33;;;;;;;2.63;75.36;102052.31;5305964;28;20035;-67
2021/05/03 01:41:45;;;;;;;8.80;6.55;;;;;;;2.62;75.32;102056.66;5307767;28;20027;-66
2021/05/03 01:44:16;;;;;;;9.30;6.50;;;;;;;2.58;75.55;102051.63;5307729;28;20031;-67
2021/05/03 01:46:48;;;;;;;9.93;6.57;;;;;;;2.55;75.58;102044.81;5304794;28;20043;-67
2021/05/03 01:49:19;;;;;;;7.40;6.28;;;;;;;2.53;75.76;102053.50;5304334;28;20028;-66
2021/05/03 01:51:50;;;;;;;9.07;6.45;;;;;;;2.50;75.72;102049.28;5307183;28;20384;-67
2021/05/03 01:54:22;;;;;;;9.10;6.28;;;;;;;2.52;75.47;102049.22;5306942;28;20035;-67
2021/05/03 01:56:53;;;;;;;8.30;6.63;;;;;;;2.50;75.81;102041.53;5302129;28;20043;-67
2021/05/03 01:59:31;;;;;;;11.70;6.63;;;;;;;2.48;75.77;102035.53;5305970;28;20442;-66
2021/05/03 02:02:02;;;;;;;8.07;6.22;;;;;;;2.47;75.94;102040.78;5301945;28;20063;-66
2021/05/03 02:04:34;;;;;;;9.05;6.45;;;;;;;2.44;76.00;102045.13;5305063;28;20740;-66
2021/05/03 02:07:05;;;;;;;7.53;6.18;;;;;;;2.46;76.09;102041.66;5301569;28;20070;-67
2021/05/03 02:09:36;;;;;;;9.82;7.15;;;;;;;2.39;76.31;102039.28;5300317;28;20031;-66
2021/05/03 02:12:08;;;;;;;8.32;6.43;;;;;;;2.40;76.06;102040.13;5303902;28;20028;-66
2021/05/03 02:14:43;;;;;;;9.93;6.80;;;;;;;2.42;76.38;102046.94;5301716;28;20110;-67
2021/05/03 02:17:14;;;;;;;10.55;6.75;;;;;;;2.41;76.23;102047.81;5302649;28;20595;-67
2021/05/03 02:19:46;;;;;;;10.90;7.20;;;;;;;2.41;76.12;102040.06;5304600;28;20108;-66
2021/05/03 02:22:17;;;;;;;10.13;6.85;;;;;;;2.36;76.14;102047.13;5304005;28;20473;-67
2021/05/03 02:24:48;;;;;;;8.77;6.63;;;;;;;2.38;76.21;102040.16;5284956;28;20063;-67
2021/05/03 02:27:19;;;;;;;10.70;6.95;;;;;;;2.35;76.25;102040.28;5305078;28;20389;-67
2021/05/03 02:29:51;;;;;;;8.63;7.00;;;;;;;2.35;76.51;102044.56;5304568;28;20123;-66
2021/05/03 02:32:23;;;;;;;10.35;7.45;;;;;;;2.33;76.68;102041.19;5304253;28;20061;-67
2021/05/03 02:34:55;;;;;;;10.52;7.60;;;;;;;2.32;76.44;102034.34;5305771;28;20429;-67
2021/05/03 02:37:26;;;;;;;9.18;6.32;;;;;;;2.32;76.62;102042.09;5305542;28;20040;-66
2021/05/03 02:39:57;;;;;;;8.98;6.93;;;;;;;2.30;76.10;102038.69;5303662;28;20052;-67
2021/05/03 02:42:28;;;;;;;12.15;6.82;;;;;;;2.34;76.58;102038.56;5307652;28;20278;-67
2021/05/03 02:45:00;;;;;;;10.30;6.57;;;;;;;2.30;76.21;102030.94;5286652;28;20032;-66
2021/05/03 02:47:32;;;;;;;10.40;6.93;;;;;;;2.30;76.80;102033.53;5303048;28;20096;-66
2021/05/03 02:50:04;;;;;;;12.45;6.15;;;;;;;2.30;76.83;102034.38;5304760;28;20194;-66
2021/05/03 02:52:35;;;;;;;10.57;7.05;;;;;;;2.26;76.81;102032.78;5303876;28;20023;-66
2021/05/03 02:55:11;;;;;;;10.48;7.13;;;;;;;2.26;76.88;102027.59;5305162;28;20118;-66
2021/05/03 02:57:44;;;;;;;8.18;6.80;;;;;;;2.29;76.85;102029.25;5304511;28;20027;-66
2021/05/03 03:00:24;;;;;;;8.52;7.03;;;;;;;2.35;77.04;102029.06;5286989;28;20155;-66
2021/05/03 03:02:56;;;;;;;11.68;7.07;;;;;;;2.32;77.53;102032.59;5305967;28;20028;-66
2021/05/03 03:05:28;;;;;;;9.38;7.10;;;;;;;2.32;77.21;102027.44;5304380;28;20155;-66
2021/05/03 03:08:02;;;;;;;9.93;7.30;;;;;;;2.33;77.39;102028.28;5303290;28;20032;-66
2021/05/03 03:10:33;;;;;;;10.02;6.30;;;;;;;2.39;76.87;102017.75;5303569;28;20034;-66
2021/05/03 03:13:05;;;;;;;10.98;7.10;;;;;;;2.35;77.17;102031.63;5304009;28;20036;-66
2021/05/03 03:15:37;;;;;;;10.30;7.20;;;;;;;2.36;76.91;102028.19;5305130;28;20051;-67
2021/05/03 03:18:08;;;;;;;10.23;6.88;;;;;;;2.32;77.24;102024.84;5304608;28;20099;-66
2021/05/03 03:20:39;;;;;;;11.85;7.05;;;;;;;2.33;77.39;102020.50;5303547;28;20362;-66
2021/05/03 03:23:10;;;;;;;9.32;7.00;;;;;;;2.31;77.46;102024.88;5305747;28;20100;-66
2021/05/03 03:25:42;;;;;;;10.27;7.20;;;;;;;2.30;77.55;102025.78;5302590;28;20039;-66
2021/05/03 03:28:13;;;;;;;9.23;7.07;;;;;;;2.31;77.42;102025.75;5306311;28;20032;-66
2021/05/03 03:30:44;;;;;;;11.13;7.03;;;;;;;2.30;77.34;102028.38;5301531;28;20087;-66
2021/05/03 03:33:16;;;;;;;9.65;6.88;;;;;;;2.30;77.31;102025.78;5288382;28;20072;-66
2021/05/03 03:35:47;;;;;;;9.73;6.70;;;;;;;2.30;77.34;102020.59;5304655;28;20135;-66
2021/05/03 03:38:19;;;;;;;9.27;7.10;;;;;;;2.28;77.25;102022.41;5304422;28;20028;-66
2021/05/03 03:40:50;;;;;;;8.52;6.90;;;;;;;2.25;77.66;102025.94;5302501;28;20539;-66
2021/05/03 03:43:21;;;;;;;8.65;7.07;;;;;;;2.29;77.56;102018.91;5286538;28;20035;-66
2021/05/03 03:45:53;;;;;;;8.25;6.97;;;;;;;2.25;77.43;102015.59;5304885;28;20031;-69
2021/05/03 03:48:24;;;;;;;9.18;7.40;;;;;;;2.22;77.74;102020.84;5302987;28;20048;-66
2021/05/03 03:50:56;;;;;;;8.73;7.45;;;;;;;2.28;77.39;102014.66;5304728;28;20483;-66
2021/05/03 03:53:27;;;;;;;9.93;7.65;;;;;;;2.26;77.57;102012.09;5305280;28;20024;-66
2021/05/03 03:55:58;;;;;;;16.23;7.78;;;;;;;2.27;77.66;102013.78;5304122;28;20408;-66
2021/05/03 03:58:30;;;;;;;9.27;7.28;;;;;;;2.28;77.43;102014.66;5300700;28;20085;-66
2021/05/03 04:01:01;;;;;;;9.13;7.35;;;;;;;2.24;77.51;102013.91;5297667;28;20028;-67
2021/05/03 04:03:33;;;;;;;11.75;8.52;;;;;;;2.26;77.18;102011.25;5285736;28;20027;-67
2021/05/03 04:06:18;;;;;;;9.95;7.70;;;;;;;2.28;77.51;102009.47;5282553;28;20585;-67
2021/05/03 04:14:25;;;;;;;13.73;9.35;;;;;;;2.27;77.50;102006.03;5306723;28;20035;-66
2021/05/03 04:25:15;;;;;;;10.90;8.82;;;;;;;2.34;77.52;101999.75;5307206;28;20071;-66
2021/05/03 04:27:46;;;;;;;12.80;9.68;;;;;;;2.36;77.19;102000.56;5306433;28;20040;-66
2021/05/03 04:30:18;;;;;;;12.55;9.10;;;;;;;2.39;77.29;102004.81;5288034;28;20038;-66
2021/05/03 04:32:49;;;;;;;12.80;9.32;;;;;;;2.40;77.34;102002.16;5308209;28;20039;-67
2021/05/03 04:35:21;;;;;;;12.25;9.70;;;;;;;2.42;77.23;101994.34;5291591;28;20020;-67
2021/05/03 04:37:53;;;;;;;12.02;9.73;;;;;;;2.47;77.14;101997.66;5305842;28;20028;-66
2021/05/03 04:40:24;;;;;;;14.27;9.73;;;;;;;2.51;77.01;102003.56;5307528;28;20024;-67
2021/05/03 04:42:55;;;;;;;13.52;10.50;;;;;;;2.53;76.71;102005.19;5308274;28;20027;-66
2021/05/03 04:45:27;;;;;;;12.57;9.27;;;;;;;2.58;76.82;102005.06;5309427;28;20028;-66
2021/05/03 04:47:58;;;;;;;12.13;8.90;;;;;;;2.59;76.77;102002.41;5305892;28;20047;-66
2021/05/03 04:50:29;;;;;;;13.02;8.63;;;;;;;2.64;76.35;102004.84;5289891;28;20024;-66
2021/05/03 04:53:01;;;;;;;11.25;8.85;;;;;;;2.64;75.86;101992.75;5308433;28;20024;-66
2021/05/03 04:55:32;;;;;;;13.90;9.23;;;;;;;2.70;76.29;102002.06;5305273;28;20031;-66
2021/05/03 04:58:03;;;;;;;11.75;8.88;;;;;;;2.73;75.79;101995.91;5306267;28;20032;-66
2021/05/03 05:00:35;;;;;;;16.42;9.70;;;;;;;2.79;76.01;101995.72;5304938;28;20028;-66
2021/05/03 05:03:06;;;;;;;12.93;8.73;;;;;;;2.80;75.68;101994.81;5308040;28;20482;-66
2021/05/03 05:05:37;;;;;;;12.98;9.05;;;;;;;2.86;75.40;102003.22;5306826;28;20134;-66
2021/05/03 05:08:09;;;;;;;13.13;8.98;;;;;;;2.91;75.22;101996.16;5306006;28;20032;-66
2021/05/03 05:10:40;;;;;;;14.63;8.45;;;;;;;2.98;75.07;101996.78;5307386;28;20027;-66
2021/05/03 05:13:11;;;;;;;10.85;8.25;;;;;;;3.02;74.63;101998.38;5308297;28;20502;-67
2021/05/03 05:15:42;;;;;;;10.00;7.78;;;;;;;3.13;74.01;101998.00;5305303;28;20032;-66
2021/05/03 05:18:14;;;;;;;10.52;8.30;;;;;;;3.23;74.46;101995.94;5306510;28;20102;-66
2021/05/03 05:20:45;;;;;;;10.63;7.90;;;;;;;3.28;73.96;101988.84;5308268;28;20024;-66
2021/05/03 05:23:17;;;;;;;10.57;7.90;;;;;;;3.39;73.53;101995.31;5307279;28;20092;-66
2021/05/03 05:25:48;;;;;;;11.00;7.78;;;;;;;3.48;72.84;101993.28;5307539;28;20035;-67
2021/05/03 05:28:19;;;;;;;11.57;7.78;;;;;;;3.54;73.05;101999.09;5306258;28;20024;-66
2021/05/03 05:30:50;;;;;;;8.43;7.07;;;;;;;3.58;72.65;101992.06;5308086;28;20307;-66
2021/05/03 05:33:22;;;;;;;11.93;7.07;;;;;;;3.67;71.87;102002.06;5308024;28;20024;-66
2021/05/03 05:35:53;;;;;;;10.55;7.13;;;;;;;3.75;71.41;101999.19;5307057;28;20035;-66
2021/05/03 05:38:24;;;;;;;11.65;7.95;;;;;;;3.79;70.74;101992.97;5306405;28;20476;-67
2021/05/03 05:40:56;;;;;;;13.48;7.30;;;;;;;3.83;71.02;101989.41;5304281;28;20027;-65
2021/05/03 05:43:27;;;;;;;9.95;6.63;;;;;;;3.87;70.44;101988.38;5304410;28;20060;-66
2021/05/03 05:45:58;;;;;;;9.52;6.25;;;;;;;3.91;70.01;101992.53;5305735;28;20020;-66
2021/05/03 05:48:29;;;;;;;10.07;6.53;;;;;;;3.96;70.25;101988.00;5304558;27;20044;-67
2021/05/03 05:51:02;;;;;;;8.90;6.22;;;;;;;4.01;70.27;101990.41;5303922;28;20516;-66
2021/05/03 05:53:33;;;;;;;9.00;6.40;;;;;;;4.00;69.41;101986.16;5307048;28;20024;-67
2021/05/03 05:56:05;;;;;;;9.88;6.85;;;;;;;4.10;69.43;101990.06;5303409;28;20055;-66
2021/05/03 05:58:36;;;;;;;9.07;6.32;;;;;;;4.18;69.38;101988.03;5286835;28;20030;-66
2021/05/03 06:01:08;;;;;;;11.23;6.15;;;;;;;4.29;68.82;101991.03;5285333;28;20405;-67
2021/05/03 06:03:40;;;;;;;7.05;6.15;;;;;;;4.43;68.85;101992.22;5285521;28;20028;-67
2021/05/03 06:06:11;;;;;;;7.72;5.85;;;;;;;4.53;67.67;101991.78;5299549;28;20031;-66
2021/05/03 06:08:43;;;;;;;7.55;6.22;;;;;;;4.69;67.30;101985.94;5304006;28;20031;-66
2021/05/03 06:11:14;;;;;;;13.75;6.57;;;;;;;4.82;67.13;101995.75;5285097;28;20074;-67
2021/05/03 06:13:45;;;;;;;8.57;5.78;;;;;;;4.96;66.82;102000.34;5306374;28;20024;-66
2021/05/03 06:16:17;;;;;;;10.65;6.03;;;;;;;5.05;66.21;101994.78;5305093;28;20027;-65
2021/05/03 06:18:48;;;;;;;9.75;5.25;;;;;;;5.20;65.41;101982.88;5284853;28;20100;-69
2021/05/03 06:21:19;;;;;;;12.85;5.85;;;;;;;5.34;64.88;101983.13;5302712;28;20059;-68
2021/05/03 06:23:51;;;;;;;8.13;5.32;;;;;;;5.48;64.17;101982.47;5307038;28;20130;-67
2021/05/03 06:26:22;;;;;;;7.60;5.70;;;;;;;5.62;62.77;101981.88;5304070;28;20032;-67
2021/05/03 06:28:53;;;;;;;16.40;5.22;;;;;;;5.79;62.36;101989.72;5286950;28;20063;-67
2021/05/03 06:31:24;;;;;;;10.00;5.18;;;;;;;5.95;61.39;101986.47;5304545;28;20046;-67
2021/05/03 06:33:56;;;;;;;10.23;5.18;;;;;;;6.09;59.41;101982.25;5307119;28;20020;-67
2021/05/03 06:36:27;;;;;;;7.45;4.90;;;;;;;6.24;60.44;101979.84;5303141;28;20024;-67
2021/05/03 06:38:59;;;;;;;7.95;4.88;;;;;;;6.37;59.89;101980.09;5296503;28;20024;-67
2021/05/03 06:41:31;;;;;;;12.30;7.27;;;;;;;6.54;59.30;101985.31;5280567;28;20028;-67
2021/05/03 06:44:02;;;;;;;11.13;5.30;;;;;;;6.65;58.37;101977.81;5302741;28;20398;-67
2021/05/03 06:46:33;;;;;;;7.95;4.82;;;;;;;6.81;58.31;101990.88;5303431;28;20130;-67
2021/05/03 06:49:05;;;;;;;7.50;4.88;;;;;;;6.91;58.06;101988.69;5304130;28;20028;-67
2021/05/03 06:51:36;;;;;;;8.65;5.70;;;;;;;7.01;57.32;101985.53;5304211;28;20028;-67
2021/05/03 06:54:08;;;;;;;8.18;5.22;;;;;;;7.15;57.22;101976.97;5304092;28;20020;-67
2021/05/03 06:56:39;;;;;;;8.40;6.05;;;;;;;7.28;56.94;101993.66;5299789;28;20143;-67
2021/05/03 06:59:10;;;;;;;10.52;6.28;;;;;;;7.42;57.35;101982.50;5305520;28;20469;-67
2021/05/03 07:01:42;;;;;;;9.85;6.22;;;;;;;7.57;56.89;101981.66;5304414;28;20374;-66
2021/05/03 07:04:13;;;;;;;8.25;6.32;;;;;;;7.70;57.71;101983.63;5283223;28;20047;-69
2021/05/03 07:06:44;;;;;;;10.35;7.65;;;;;;;7.85;56.91;101981.97;5303788;28;20053;-69
2021/05/03 07:09:16;;;;;;;12.98;7.57;;;;;;;7.93;57.35;101975.38;5301925;28;20458;-67
2021/05/03 07:11:47;;;;;;;11.48;7.82;;;;;;;8.03;57.04;101978.28;5299443;28;20558;-68
2021/05/03 07:14:19;;;;;;;14.40;8.93;;;;;;;8.06;57.11;101978.13;5301680;28;20019;-67
2021/05/03 07:16:50;;;;;;;10.38;8.90;;;;;;;8.22;57.98;101978.97;5281877;28;20026;-67
2021/05/03 07:19:21;;;;;;;10.75;8.75;;;;;;;8.33;57.48;101974.88;5303047;28;20110;-68
2021/05/03 07:21:52;;;;;;;17.08;10.05;;;;;;;8.39;57.04;101969.34;5303613;28;20474;-67
2021/05/03 07:24:24;;;;;;;11.77;9.68;;;;;;;8.46;56.56;101965.47;5304705;28;20024;-68
2021/05/03 07:26:55;;;;;;;11.38;9.68;;;;;;;8.58;56.82;101963.91;5302741;28;20024;-67
2021/05/03 07:29:26;;;;;;;11.23;9.30;;;;;;;8.67;56.70;101964.19;5303897;28;20028;-67
2021/05/03 07:31:58;;;;;;;13.32;10.02;;;;;;;8.81;56.10;101963.38;5302815;28;20393;-67
2021/05/03 07:34:29;;;;;;;13.63;9.60;;;;;;;8.96;55.30;101970.31;5304522;28;20024;-67
2021/05/03 07:37:03;;;;;;;15.88;10.32;;;;;;;9.11;55.08;101965.09;5301897;28;20047;-67
2021/05/03 07:39:34;;;;;;;;;;;;;;;9.36;55.22;101964.44;5301325;28;20039;-68
2021/05/03 07:42:05;;;;;;;13.50;10.00;;;;;;;9.43;53.29;101957.88;5299537;28;19951;-68
2021/05/03 07:44:37;;;;;;;13.75;10.52;;;;;;;9.54;53.25;101959.81;5304248;28;20031;-68
2021/05/03 07:47:08;;;;;;;12.55;9.90;;;;;;;9.65;52.36;101960.00;5284474;28;20044;-68
2021/05/03 07:49:40;;;;;;;13.25;9.50;;;;;;;9.80;52.83;101947.72;5306070;28;20364;-68
2021/05/03 07:52:11;;;;;;;11.70;9.10;;;;;;;9.80;52.00;101960.81;5305755;28;20047;-68
2021/05/03 07:54:42;;;;;;;12.35;9.10;;;;;;;9.94;52.45;101959.00;5286851;28;20020;-68
2021/05/03 07:57:13;;;;;;;10.75;9.10;;;;;;;10.11;51.70;101952.66;5306292;28;20106;-69
2021/05/03 07:59:45;;;;;;;10.32;8.65;;;;;;;10.14;50.14;101947.22;5307109;28;20031;-68
2021/05/03 08:02:16;;;;;;;9.70;8.70;;;;;;;10.24;50.13;101944.84;5305456;28;20028;-68
2021/05/03 08:04:48;;;;;;;11.93;9.27;;;;;;;10.42;50.70;101954.16;5306881;28;20489;-67
2021/05/03 08:07:20;;;;;;;12.13;8.98;;;;;;;10.44;49.02;101939.16;5305675;28;20146;-68
2021/05/03 08:09:51;;;;;;;11.27;8.70;;;;;;;10.68;48.70;101938.44;5295062;28;20076;-68
2021/05/03 08:12:22;;;;;;;10.40;8.15;;;;;;;10.83;48.67;101932.16;5299682;28;20020;-68
2021/05/03 08:14:54;;;;;;;14.70;8.77;;;;;;;10.91;48.12;101942.97;5304319;28;20067;-68
2021/05/03 08:17:26;;;;;;;9.88;8.85;;;;;;;11.12;47.61;101922.28;5304159;28;20119;-68
2021/05/03 08:19:57;;;;;;;14.73;8.35;;;;;;;11.30;47.05;101928.03;5305574;28;20121;-66
2021/05/03 08:22:28;;;;;;;10.40;8.80;;;;;;;11.48;47.36;101917.16;5307256;28;20754;-68
2021/05/03 08:25:00;;;;;;;9.95;8.00;;;;;;;11.61;45.20;101923.22;5304904;28;20092;-67
2021/05/03 08:27:31;;;;;;;9.50;8.23;;;;;;;11.68;44.52;101922.66;5301652;28;20023;-68
2021/05/03 08:30:04;;;;;;;11.13;8.48;;;;;;;11.77;45.18;101922.94;5286726;28;20050;-68
2021/05/03 08:32:35;;;;;;;;;;;;;;;12.05;43.77;101919.19;5306548;28;20480;-67
2021/05/03 08:35:07;;;;;;;11.27;8.02;;;;;;;12.01;44.05;101922.94;5305547;28;19968;-68
2021/05/03 08:37:39;;;;;;;10.35;8.55;;;;;;;12.19;43.37;101913.72;5304590;28;21266;-68
2021/05/03 08:40:12;;;;;;;8.85;7.85;;;;;;;12.38;43.84;101910.53;5285966;28;20038;-67
2021/05/03 08:42:44;;;;;;;9.65;8.20;;;;;;;12.39;43.20;101906.97;5303203;28;20093;-67
2021/05/03 08:45:15;;;;;;;9.20;8.23;;;;;;;12.48;43.03;101908.06;5286934;28;20024;-67
2021/05/03 08:48:11;;;;;;;10.70;7.65;;;;;;;12.41;41.21;101905.06;5304988;27;20044;-68
2021/05/03 08:53:25;;;;;;;9.80;7.82;;;;;;;12.58;41.32;101906.44;5305733;28;20449;-67
2021/05/03 08:55:57;;;;;;;9.80;7.70;;;;;;;12.55;40.55;101906.66;5300465;28;20099;-67
2021/05/03 08:58:28;;;;;;;10.82;7.55;;;;;;;12.47;40.67;101912.50;5305354;28;20077;-67
2021/05/03 09:01:00;;;;;;;10.30;7.82;;;;;;;12.49;40.81;101907.94;5307458;28;20056;-67
2021/05/03 09:03:33;;;;;;;9.23;7.78;;;;;;;12.57;41.10;101902.94;5302749;28;20028;-67
2021/05/03 09:06:05;;;;;;;8.48;7.40;;;;;;;12.73;41.42;101892.09;5302861;28;20024;-67
2021/05/03 09:08:37;;;;;;;8.95;8.05;;;;;;;12.90;40.89;101898.66;5285404;28;20037;-67
2021/05/03 09:11:14;;;;;;;7.93;7.13;;;;;;;13.14;41.18;101898.53;5296332;28;20051;-67
2021/05/03 09:13:45;;;;;;;8.23;7.30;;;;;;;13.28;39.93;101893.06;5285962;28;20023;-68
2021/05/03 09:16:23;;;;;;;9.32;8.07;;;;;;;13.40;40.17;101899.13;5304137;28;20046;-67
2021/05/03 09:18:54;;;;;;;9.00;7.60;;;;;;;13.54;39.50;101895.41;5303209;28;20028;-67
2021/05/03 09:21:31;;;;;;;10.15;7.22;;;;;;;13.59;39.65;101890.59;5304319;28;20050;-67
2021/05/03 09:24:07;;;;;;;10.63;7.88;;;;;;;13.73;39.54;101894.75;5304011;28;20031;-67
2021/05/03 09:26:52;;;;;;;10.82;7.18;;;;;;;13.73;39.54;101885.03;5275401;28;20035;-67
2021/05/03 09:29:27;;;;;;;12.20;8.05;;;;;;;13.68;38.12;101892.50;5292248;28;20030;-66
2021/05/03 09:32:04;;;;;;;9.07;7.53;;;;;;;13.64;37.56;101888.44;5298958;28;20031;-67
2021/05/03 09:34:54;;;;;;;11.20;7.55;;;;;;;13.73;38.35;101882.41;5302339;28;20055;-67
2021/05/03 09:37:26;;;;;;;10.50;8.13;;;;;;;13.54;38.26;101879.59;5300807;28;20028;-67
2021/05/03 09:40:12;;;;;;;8.05;6.72;;;;;;;13.60;38.53;101874.69;5300981;28;20385;-67
2021/05/03 09:42:54;;;;;;;8.35;7.13;;;;;;;13.53;38.70;101856.88;5298422;28;20496;-67
2021/05/03 09:45:31;;;;;;;9.40;7.55;;;;;;;13.60;38.97;101866.78;5301749;28;20385;-67
2021/05/03 09:48:02;;;;;;;7.82;6.43;;;;;;;13.62;38.18;101866.66;5304018;27;20051;-67
2021/05/03 09:50:33;;;;;;;10.65;7.07;;;;;;;13.77;37.68;101861.94;5302581;28;20419;-68
2021/05/03 09:53:09;;;;;;;10.48;7.25;;;;;;;13.85;38.49;101864.75;5303826;28;20292;-67
2021/05/03 09:55:52;;;;;;;8.60;7.68;;;;;;;14.03;37.74;101849.25;5302103;28;20111;-67
2021/05/03 09:58:24;;;;;;;9.43;7.35;;;;;;;14.22;37.61;101848.53;5302617;28;20023;-67
2021/05/03 10:00:57;;;;;;;10.23;6.97;;;;;;;14.17;37.70;101838.38;5300393;28;20024;-66
2021/05/03 10:03:46;;;;;;;8.30;6.80;;;;;;;14.44;37.32;101835.22;5303212;28;20039;-66
2021/05/03 10:06:18;;;;;;;11.98;7.97;;;;;;;14.54;37.50;101833.47;5303959;28;20472;-67
2021/05/03 10:08:51;;;;;;;13.27;7.68;;;;;;;14.38;35.78;101832.25;5304118;28;20059;-67
2021/05/03 10:11:28;;;;;;;9.18;7.15;;;;;;;14.29;36.04;101831.25;5298312;28;20090;-67
2021/05/03 10:14:00;;;;;;;8.88;6.80;;;;;;;14.19;35.83;101817.16;5282165;28;20558;-67
2021/05/03 10:16:32;;;;;;;7.90;6.78;;;;;;;14.58;37.37;101805.88;5301784;28;20020;-67
2021/05/03 10:19:05;;;;;;;13.63;7.20;;;;;;;14.65;35.48;101806.16;5305432;28;20381;-67
2021/05/03 10:21:36;;;;;;;;;;;;;;;14.99;35.41;101806.69;5302317;28;20050;-68
2021/05/03 10:24:08;;;;;;;7.57;6.77;;;;;;;14.96;35.51;101809.59;5304750;28;19924;-67
2021/05/03 10:26:45;;;;;;;10.20;7.70;;;;;;;15.00;34.90;101794.31;5301569;28;20416;-67
2021/05/03 10:29:40;;;;;;;7.90;7.10;;;;;;;15.20;35.64;101801.31;5284594;28;20082;-66
2021/05/03 10:32:22;;;;;;;8.27;7.40;;;;;;;15.03;34.75;101794.06;5301240;28;20036;-66
2021/05/03 10:34:54;;;;;;;9.38;6.47;;;;;;;14.83;34.30;101790.53;5300656;28;20024;-66
2021/05/03 10:37:32;;;;;;;9.52;7.50;;;;;;;14.93;34.82;101787.94;5302980;28;20023;-66
2021/05/03 10:40:04;;;;;;;9.10;6.75;;;;;;;15.11;34.54;101791.56;5303048;28;20031;-66
2021/05/03 10:43:06;;;;;;;8.05;7.00;;;;;;;15.26;34.82;101784.09;5297611;28;20031;-67
2021/05/03 10:46:49;;;;;;;11.27;7.95;;;;;;;15.24;34.25;101776.31;5302193;28;20127;-67
2021/05/03 10:49:11;;;;;;;9.65;7.40;;;;;;;15.06;34.12;101776.16;5293001;28;20653;-67
2021/05/03 10:57:01;;;;;;;7.90;6.72;;;;;;;15.39;33.75;101758.25;5298843;28;20261;-67
2021/05/03 10:59:49;;;;;;;8.55;7.20;;;;;;;15.50;33.57;101752.00;5304775;28;20038;-66
2021/05/03 11:02:23;;;;;;;7.35;6.65;;;;;;;15.40;33.16;101759.91;5283804;28;20039;-67
2021/05/03 11:05:14;;;;;;;9.23;6.03;;;;;;;15.54;34.04;101754.22;5303666;28;20032;-66
2021/05/03 11:08:04;;;;;;;7.20;5.80;;;;;;;15.55;33.10;101765.63;5302871;28;20055;-66
2021/05/03 11:10:55;;;;;;;6.82;5.80;;;;;;;15.37;31.00;101749.63;5294906;28;20023;-66
2021/05/03 11:13:36;;;;;;;9.90;6.50;;;;;;;15.33;32.69;101742.97;5292741;28;20034;-66
2021/05/03 11:16:25;;;;;;;10.35;6.90;;;;;;;15.40;33.63;101738.78;5300721;28;20434;-67
2021/05/03 11:19:00;;;;;;;7.68;6.43;;;;;;;15.33;33.15;101730.59;5304218;28;20145;-66
2021/05/03 11:22:00;;;;;;;10.18;6.10;;;;;;;15.63;33.60;101734.03;5305987;28;20165;-66
2021/05/03 11:24:35;;;;;;;7.32;6.47;;;;;;;15.46;31.97;101727.69;5259946;28;20045;-66
2021/05/03 11:27:10;;;;;;;7.80;6.30;;;;;;;15.52;31.58;101724.47;5306451;28;20032;-66
2021/05/03 11:32:26;;;;;;;6.85;6.13;;;;;;;15.58;31.00;101713.34;5306532;28;20023;-66
2021/05/03 11:37:58;;;;;;;7.78;6.13;;;;;;;15.90;31.32;101709.53;5305657;28;20390;-67
2021/05/03 11:40:55;;;;;;;7.63;6.22;;;;;;;16.17;30.56;101714.03;5308616;28;20077;-66
2021/05/03 11:46:34;;;;;;;9.38;6.10;;;;;;;15.78;29.48;101702.78;5304514;28;20469;-66
2021/05/03 11:49:08;;;;;;;8.52;5.53;;;;;;;15.81;29.18;101700.69;5296026;28;20078;-66
2021/05/03 11:51:51;;;;;;;8.20;6.40;;;;;;;15.78;30.16;101705.41;5295224;28;20078;-66
2021/05/03 11:54:26;;;;;;;9.88;6.35;;;;;;;15.74;30.11;101699.56;5297271;28;20162;-66
2021/05/03 11:57:03;;;;;;;6.55;5.47;;;;;;;15.79;29.48;101699.97;5294516;28;20028;-67
2021/05/03 11:59:36;;;;;;;10.00;5.68;;;;;;;15.81;29.27;101690.09;5296749;28;20028;-67
2021/05/03 12:02:08;;;;;;;;;;;;;;;16.07;29.43;101699.22;5296604;28;20075;-67
2021/05/03 12:04:48;;;;;;;7.75;5.85;;;;;;;15.77;28.82;101696.66;5296194;28;20206;-68
2021/05/03 12:07:22;;;;;;;6.72;5.80;;;;;;;15.98;28.95;101690.31;5297590;28;20016;-67
2021/05/03 12:10:05;;;;;;;5.43;4.82;;;;;;;16.15;28.85;101696.69;5287240;28;20020;-67
2021/05/03 12:12:44;;;;;;;8.35;4.65;;;;;;;16.14;27.95;101682.63;5293142;28;20028;-67
2021/05/03 12:15:22;;;;;;;6.05;4.35;;;;;;;16.32;27.75;101684.47;5296071;28;20370;-68
2021/05/03 12:17:55;;;;;;;6.72;5.18;;;;;;;16.20;28.53;101676.72;5296635;28;20031;-67
2021/05/03 12:20:34;;;;;;;7.68;5.30;;;;;;;16.17;28.58;101676.19;5296681;28;20035;-68
2021/05/03 12:23:10;;;;;;;9.98;5.47;;;;;;;16.24;28.91;101672.00;5296785;28;20519;-68
2021/05/03 12:28:18;;;;;;;7.38;4.93;;;;;;;16.36;28.94;101654.09;5293715;28;20186;-67